sensor_id;sensor_type;location;lat;lon;timestamp;pressure;altitude;pressure_sealevel;temperature
22322;BMP180;11328;53.928;18.522;2022-07-12T00:02:17;100597.00;;;15.00
22322;BMP180;11328;53.928;18.522;2022-07-12T00:04:44;100601.00;;;14.90
22322;BMP180;11328;53.928;18.522;2022-07-12T00:07:11;100593.00;;;14.90
22322;BMP180;11328;53.928;18.522;2022-07-12T00:09:38;100592.00;;;14.90
22322;BMP180;11328;53.928;18.522;2022-07-12T00:12:05;100592.00;;;14.90
22322;BMP180;11328;53.928;18.522;2022-07-12T00:14:32;100588.00;;;14.60
22322;BMP180;11328;53.928;18.522;2022-07-12T00:16:59;100579.00;;;14.90
22322;BMP180;11328;53.928;18.522;2022-07-12T00:19:29;100590.00;;;14.90
22322;BMP180;11328;53.928;18.522;2022-07-12T00:21:55;100597.00;;;14.80
22322;BMP180;11328;53.928;18.522;2022-07-12T00:24:22;100590.00;;;14.80
22322;BMP180;11328;53.928;18.522;2022-07-12T00:26:49;100597.00;;;14.80
22322;BMP180;11328;53.928;18.522;2022-07-12T00:29:16;100593.00;;;14.80
22322;BMP180;11328;53.928;18.522;2022-07-12T00:31:43;100589.00;;;14.80
22322;BMP180;11328;53.928;18.522;2022-07-12T00:34:10;100590.00;;;14.70
22322;BMP180;11328;53.928;18.522;2022-07-12T00:36:37;100579.00;;;14.60
22322;BMP180;11328;53.928;18.522;2022-07-12T00:39:04;100586.00;;;14.60
22322;BMP180;11328;53.928;18.522;2022-07-12T00:41:31;100514.00;;;14.50
22322;BMP180;11328;53.928;18.522;2022-07-12T00:43:58;100586.00;;;14.40
22322;BMP180;11328;53.928;18.522;2022-07-12T00:46:25;100581.00;;;14.40
22322;BMP180;11328;53.928;18.522;2022-07-12T00:48:54;100587.00;;;14.40
22322;BMP180;11328;53.928;18.522;2022-07-12T00:51:21;100580.00;;;14.60
22322;BMP180;11328;53.928;18.522;2022-07-12T00:53:49;100580.00;;;14.60
22322;BMP180;11328;53.928;18.522;2022-07-12T00:56:17;100568.00;;;14.60
22322;BMP180;11328;53.928;18.522;2022-07-12T00:58:45;100587.00;;;14.60
22322;BMP180;11328;53.928;18.522;2022-07-12T01:01:12;100580.00;;;14.50
22322;BMP180;11328;53.928;18.522;2022-07-12T01:03:40;100583.00;;;14.50
22322;BMP180;11328;53.928;18.522;2022-07-12T01:06:08;100589.00;;;14.40
22322;BMP180;11328;53.928;18.522;2022-07-12T01:08:36;100593.00;;;14.40
22322;BMP180;11328;53.928;18.522;2022-07-12T01:11:03;100578.00;;;14.40
22322;BMP180;11328;53.928;18.522;2022-07-12T01:13:30;100581.00;;;14.40
22322;BMP180;11328;53.928;18.522;2022-07-12T01:15:57;100589.00;;;14.50
22322;BMP180;11328;53.928;18.522;2022-07-12T01:18:27;100599.00;;;14.40
22322;BMP180;11328;53.928;18.522;2022-07-12T01:20:54;100586.00;;;14.50
22322;BMP180;11328;53.928;18.522;2022-07-12T01:23:24;100596.00;;;14.40
22322;BMP180;11328;53.928;18.522;2022-07-12T01:25:51;100597.00;;;14.40
22322;BMP180;11328;53.928;18.522;2022-07-12T01:28:18;100586.00;;;14.50
22322;BMP180;11328;53.928;18.522;2022-07-12T01:30:47;100590.00;;;14.40
22322;BMP180;11328;53.928;18.522;2022-07-12T01:33:16;100586.00;;;14.40
22322;BMP180;11328;53.928;18.522;2022-07-12T01:35:43;100574.00;;;14.40
22322;BMP180;11328;53.928;18.522;2022-07-12T01:38:10;100579.00;;;14.40
22322;BMP180;11328;53.928;18.522;2022-07-12T01:40:37;100570.00;;;14.40
22322;BMP180;11328;53.928;18.522;2022-07-12T01:43:05;100583.00;;;14.30
22322;BMP180;11328;53.928;18.522;2022-07-12T01:45:33;100583.00;;;14.30
22322;BMP180;11328;53.928;18.522;2022-07-12T01:48:00;100578.00;;;14.30
22322;BMP180;11328;53.928;18.522;2022-07-12T01:50:27;100580.00;;;14.30
22322;BMP180;11328;53.928;18.522;2022-07-12T01:52:54;100576.00;;;14.30
22322;BMP180;11328;53.928;18.522;2022-07-12T01:55:21;100578.00;;;14.40
22322;BMP180;11328;53.928;18.522;2022-07-12T01:57:50;100557.00;;;14.30
22322;BMP180;11328;53.928;18.522;2022-07-12T02:00:17;100572.00;;;14.40
22322;BMP180;11328;53.928;18.522;2022-07-12T02:02:46;100562.00;;;14.40
22322;BMP180;11328;53.928;18.522;2022-07-12T02:05:14;100579.00;;;14.50
22322;BMP180;11328;53.928;18.522;2022-07-12T02:07:41;100574.00;;;14.50
22322;BMP180;11328;53.928;18.522;2022-07-12T02:10:09;100583.00;;;14.50
22322;BMP180;11328;53.928;18.522;2022-07-12T02:12:36;100577.00;;;14.50
22322;BMP180;11328;53.928;18.522;2022-07-12T02:15:06;100586.00;;;14.40
22322;BMP180;11328;53.928;18.522;2022-07-12T02:17:33;100573.00;;;14.40
22322;BMP180;11328;53.928;18.522;2022-07-12T02:20:00;100570.00;;;14.40
22322;BMP180;11328;53.928;18.522;2022-07-12T02:22:27;100568.00;;;14.30
22322;BMP180;11328;53.928;18.522;2022-07-12T02:24:55;100566.00;;;14.40
22322;BMP180;11328;53.928;18.522;2022-07-12T02:27:21;100564.00;;;14.40
22322;BMP180;11328;53.928;18.522;2022-07-12T02:29:48;100568.00;;;14.40
22322;BMP180;11328;53.928;18.522;2022-07-12T02:32:16;100556.00;;;14.50
22322;BMP180;11328;53.928;18.522;2022-07-12T02:34:43;100568.00;;;14.50
22322;BMP180;11328;53.928;18.522;2022-07-12T02:37:10;100551.00;;;14.50
22322;BMP180;11328;53.928;18.522;2022-07-12T02:39:37;100562.00;;;14.50
22322;BMP180;11328;53.928;18.522;2022-07-12T02:42:04;100558.00;;;14.50
22322;BMP180;11328;53.928;18.522;2022-07-12T02:44:31;100566.00;;;14.50
22322;BMP180;11328;53.928;18.522;2022-07-12T02:47:00;100549.00;;;14.50
22322;BMP180;11328;53.928;18.522;2022-07-12T02:49:27;100558.00;;;14.40
22322;BMP180;11328;53.928;18.522;2022-07-12T02:51:54;100559.00;;;14.40
22322;BMP180;11328;53.928;18.522;2022-07-12T02:54:21;100547.00;;;14.40
22322;BMP180;11328;53.928;18.522;2022-07-12T02:56:48;100549.00;;;14.40
22322;BMP180;11328;53.928;18.522;2022-07-12T02:59:15;100553.00;;;14.40
22322;BMP180;11328;53.928;18.522;2022-07-12T03:01:42;100547.00;;;14.40
22322;BMP180;11328;53.928;18.522;2022-07-12T03:04:10;100558.00;;;14.40
22322;BMP180;11328;53.928;18.522;2022-07-12T03:06:37;100554.00;;;14.40
22322;BMP180;11328;53.928;18.522;2022-07-12T03:09:04;100557.00;;;14.50
22322;BMP180;11328;53.928;18.522;2022-07-12T03:11:31;100559.00;;;14.50
22322;BMP180;11328;53.928;18.522;2022-07-12T03:13:57;100530.00;;;14.50
22322;BMP180;11328;53.928;18.522;2022-07-12T03:16:24;100558.00;;;14.50
22322;BMP180;11328;53.928;18.522;2022-07-12T03:18:51;100543.00;;;14.50
22322;BMP180;11328;53.928;18.522;2022-07-12T03:21:18;100550.00;;;14.50
22322;BMP180;11328;53.928;18.522;2022-07-12T03:23:45;100551.00;;;14.50
22322;BMP180;11328;53.928;18.522;2022-07-12T03:26:12;100548.00;;;14.50
22322;BMP180;11328;53.928;18.522;2022-07-12T03:28:39;100550.00;;;14.50
22322;BMP180;11328;53.928;18.522;2022-07-12T03:31:06;100525.00;;;14.40
22322;BMP180;11328;53.928;18.522;2022-07-12T03:33:33;100540.00;;;14.40
22322;BMP180;11328;53.928;18.522;2022-07-12T03:36:00;100543.00;;;14.50
22322;BMP180;11328;53.928;18.522;2022-07-12T03:38:27;100549.00;;;14.50
22322;BMP180;11328;53.928;18.522;2022-07-12T03:40:54;100551.00;;;14.60
22322;BMP180;11328;53.928;18.522;2022-07-12T03:43:21;100552.00;;;14.70
22322;BMP180;11328;53.928;18.522;2022-07-12T03:45:48;100550.00;;;14.80
22322;BMP180;11328;53.928;18.522;2022-07-12T03:48:15;100558.00;;;14.90
22322;BMP180;11328;53.928;18.522;2022-07-12T03:50:43;100555.00;;;14.90
22322;BMP180;11328;53.928;18.522;2022-07-12T03:53:12;100549.00;;;14.90
22322;BMP180;11328;53.928;18.522;2022-07-12T03:55:39;100557.00;;;14.90
22322;BMP180;11328;53.928;18.522;2022-07-12T03:58:06;100548.00;;;15.00
22322;BMP180;11328;53.928;18.522;2022-07-12T04:00:33;100547.00;;;15.00
22322;BMP180;11328;53.928;18.522;2022-07-12T04:03:00;100538.00;;;15.10
22322;BMP180;11328;53.928;18.522;2022-07-12T04:05:27;100545.00;;;15.10
22322;BMP180;11328;53.928;18.522;2022-07-12T04:07:54;100542.00;;;15.20
22322;BMP180;11328;53.928;18.522;2022-07-12T04:10:21;100540.00;;;15.30
22322;BMP180;11328;53.928;18.522;2022-07-12T04:12:48;100532.00;;;15.40
22322;BMP180;11328;53.928;18.522;2022-07-12T04:15:17;100527.00;;;15.40
22322;BMP180;11328;53.928;18.522;2022-07-12T04:17:44;100531.00;;;15.50
22322;BMP180;11328;53.928;18.522;2022-07-12T04:20:11;100538.00;;;15.60
22322;BMP180;11328;53.928;18.522;2022-07-12T04:22:38;100534.00;;;15.70
22322;BMP180;11328;53.928;18.522;2022-07-12T04:25:07;100532.00;;;15.80
22322;BMP180;11328;53.928;18.522;2022-07-12T04:27:35;100539.00;;;15.80
22322;BMP180;11328;53.928;18.522;2022-07-12T04:30:04;100518.00;;;15.90
22322;BMP180;11328;53.928;18.522;2022-07-12T04:32:31;100527.00;;;16.00
22322;BMP180;11328;53.928;18.522;2022-07-12T04:34:58;100507.00;;;16.00
22322;BMP180;11328;53.928;18.522;2022-07-12T04:37:25;100527.00;;;16.20
22322;BMP180;11328;53.928;18.522;2022-07-12T04:39:52;100514.00;;;16.30
22322;BMP180;11328;53.928;18.522;2022-07-12T04:42:19;100520.00;;;16.30
22322;BMP180;11328;53.928;18.522;2022-07-12T04:44:46;100524.00;;;16.50
22322;BMP180;11328;53.928;18.522;2022-07-12T04:47:13;100516.00;;;16.50
22322;BMP180;11328;53.928;18.522;2022-07-12T04:49:40;100525.00;;;16.60
22322;BMP180;11328;53.928;18.522;2022-07-12T04:52:07;100523.00;;;16.60
22322;BMP180;11328;53.928;18.522;2022-07-12T04:54:34;100521.00;;;16.70
22322;BMP180;11328;53.928;18.522;2022-07-12T04:57:01;100512.00;;;16.80
22322;BMP180;11328;53.928;18.522;2022-07-12T04:59:28;100514.00;;;16.90
22322;BMP180;11328;53.928;18.522;2022-07-12T05:01:55;100514.00;;;16.90
22322;BMP180;11328;53.928;18.522;2022-07-12T05:04:22;100517.00;;;17.10
22322;BMP180;11328;53.928;18.522;2022-07-12T05:06:49;100514.00;;;17.20
22322;BMP180;11328;53.928;18.522;2022-07-12T05:09:16;100518.00;;;17.30
22322;BMP180;11328;53.928;18.522;2022-07-12T05:11:44;100522.00;;;17.50
22322;BMP180;11328;53.928;18.522;2022-07-12T05:14:11;100527.00;;;17.60
22322;BMP180;11328;53.928;18.522;2022-07-12T05:16:38;100528.00;;;17.80
22322;BMP180;11328;53.928;18.522;2022-07-12T05:19:05;100528.00;;;17.90
22322;BMP180;11328;53.928;18.522;2022-07-12T05:21:32;100527.00;;;18.10
22322;BMP180;11328;53.928;18.522;2022-07-12T05:24:05;100536.00;;;18.30
22322;BMP180;11328;53.928;18.522;2022-07-12T05:26:32;100504.00;;;18.50
22322;BMP180;11328;53.928;18.522;2022-07-12T05:29:00;100532.00;;;18.60
22322;BMP180;11328;53.928;18.522;2022-07-12T05:31:27;100526.00;;;18.70
22322;BMP180;11328;53.928;18.522;2022-07-12T05:33:56;100522.00;;;18.90
22322;BMP180;11328;53.928;18.522;2022-07-12T05:36:23;100527.00;;;19.00
22322;BMP180;11328;53.928;18.522;2022-07-12T05:38:50;100530.00;;;19.30
22322;BMP180;11328;53.928;18.522;2022-07-12T05:41:17;100529.00;;;19.70
22322;BMP180;11328;53.928;18.522;2022-07-12T05:43:44;100539.00;;;19.90
22322;BMP180;11328;53.928;18.522;2022-07-12T05:46:11;100532.00;;;20.10
22322;BMP180;11328;53.928;18.522;2022-07-12T05:48:39;100529.00;;;20.10
22322;BMP180;11328;53.928;18.522;2022-07-12T05:51:06;100528.00;;;20.00
22322;BMP180;11328;53.928;18.522;2022-07-12T05:53:51;100535.00;;;20.10
22322;BMP180;11328;53.928;18.522;2022-07-12T05:56:18;100527.00;;;20.30
22322;BMP180;11328;53.928;18.522;2022-07-12T05:58:45;100529.00;;;20.50
22322;BMP180;11328;53.928;18.522;2022-07-12T06:01:12;100518.00;;;20.60
22322;BMP180;11328;53.928;18.522;2022-07-12T06:03:39;100532.00;;;20.80
22322;BMP180;11328;53.928;18.522;2022-07-12T06:06:06;100506.00;;;20.80
22322;BMP180;11328;53.928;18.522;2022-07-12T06:08:33;100526.00;;;21.00
22322;BMP180;11328;53.928;18.522;2022-07-12T06:11:00;100523.00;;;21.00
22322;BMP180;11328;53.928;18.522;2022-07-12T06:13:26;100532.00;;;21.10
22322;BMP180;11328;53.928;18.522;2022-07-12T06:15:55;100533.00;;;21.40
22322;BMP180;11328;53.928;18.522;2022-07-12T06:18:26;100530.00;;;21.30
22322;BMP180;11328;53.928;18.522;2022-07-12T06:20:53;100539.00;;;21.30
22322;BMP180;11328;53.928;18.522;2022-07-12T06:23:20;100529.00;;;21.80
22322;BMP180;11328;53.928;18.522;2022-07-12T06:25:46;100539.00;;;21.90
22322;BMP180;11328;53.928;18.522;2022-07-12T06:28:21;100539.00;;;22.10
22322;BMP180;11328;53.928;18.522;2022-07-12T06:30:48;100534.00;;;22.10
22322;BMP180;11328;53.928;18.522;2022-07-12T06:33:15;100544.00;;;22.20
22322;BMP180;11328;53.928;18.522;2022-07-12T06:35:42;100538.00;;;22.00
22322;BMP180;11328;53.928;18.522;2022-07-12T06:38:09;100543.00;;;22.20
22322;BMP180;11328;53.928;18.522;2022-07-12T06:40:36;100532.00;;;22.40
22322;BMP180;11328;53.928;18.522;2022-07-12T06:43:11;100539.00;;;22.20
22322;BMP180;11328;53.928;18.522;2022-07-12T06:45:40;100541.00;;;22.30
22322;BMP180;11328;53.928;18.522;2022-07-12T06:48:07;100531.00;;;22.30
22322;BMP180;11328;53.928;18.522;2022-07-12T06:50:34;100529.00;;;22.50
22322;BMP180;11328;53.928;18.522;2022-07-12T06:53:01;100528.00;;;22.70
22322;BMP180;11328;53.928;18.522;2022-07-12T06:55:28;100537.00;;;23.00
22322;BMP180;11328;53.928;18.522;2022-07-12T06:57:57;100531.00;;;23.00
22322;BMP180;11328;53.928;18.522;2022-07-12T07:00:24;100535.00;;;22.60
22322;BMP180;11328;53.928;18.522;2022-07-12T07:02:51;100534.00;;;23.00
22322;BMP180;11328;53.928;18.522;2022-07-12T07:05:18;100545.00;;;23.50
22322;BMP180;11328;53.928;18.522;2022-07-12T07:07:46;100513.00;;;23.60
22322;BMP180;11328;53.928;18.522;2022-07-12T07:10:13;100534.00;;;23.50
22322;BMP180;11328;53.928;18.522;2022-07-12T07:12:41;100530.00;;;23.70
22322;BMP180;11328;53.928;18.522;2022-07-12T07:15:09;100535.00;;;23.70
22322;BMP180;11328;53.928;18.522;2022-07-12T07:17:36;100542.00;;;24.00
22322;BMP180;11328;53.928;18.522;2022-07-12T07:20:03;100538.00;;;24.20
22322;BMP180;11328;53.928;18.522;2022-07-12T07:22:31;100542.00;;;24.00
22322;BMP180;11328;53.928;18.522;2022-07-12T07:24:58;100544.00;;;24.20
22322;BMP180;11328;53.928;18.522;2022-07-12T07:27:25;100534.00;;;24.60
22322;BMP180;11328;53.928;18.522;2022-07-12T07:29:52;100542.00;;;24.30
22322;BMP180;11328;53.928;18.522;2022-07-12T07:32:37;100541.00;;;24.10
22322;BMP180;11328;53.928;18.522;2022-07-12T07:35:05;100550.00;;;24.40
22322;BMP180;11328;53.928;18.522;2022-07-12T07:37:33;100538.00;;;24.30
22322;BMP180;11328;53.928;18.522;2022-07-12T07:40:01;100556.00;;;24.10
22322;BMP180;11328;53.928;18.522;2022-07-12T07:42:29;100542.00;;;24.60
22322;BMP180;11328;53.928;18.522;2022-07-12T07:44:56;100528.00;;;25.20
22322;BMP180;11328;53.928;18.522;2022-07-12T07:47:48;100535.00;;;25.20
22322;BMP180;11328;53.928;18.522;2022-07-12T07:50:36;100542.00;;;25.10
22322;BMP180;11328;53.928;18.522;2022-07-12T07:53:03;100540.00;;;25.40
22322;BMP180;11328;53.928;18.522;2022-07-12T07:55:31;100537.00;;;25.60
22322;BMP180;11328;53.928;18.522;2022-07-12T07:57:59;100540.00;;;25.90
22322;BMP180;11328;53.928;18.522;2022-07-12T08:00:28;100541.00;;;25.60
22322;BMP180;11328;53.928;18.522;2022-07-12T08:02:55;100539.00;;;25.40
22322;BMP180;11328;53.928;18.522;2022-07-12T08:05:23;100541.00;;;24.90
22322;BMP180;11328;53.928;18.522;2022-07-12T08:07:55;100553.00;;;25.10
22322;BMP180;11328;53.928;18.522;2022-07-12T08:10:22;100539.00;;;24.70
22322;BMP180;11328;53.928;18.522;2022-07-12T08:12:52;100548.00;;;24.80
22322;BMP180;11328;53.928;18.522;2022-07-12T08:15:19;100554.00;;;25.00
22322;BMP180;11328;53.928;18.522;2022-07-12T08:17:46;100534.00;;;24.90
22322;BMP180;11328;53.928;18.522;2022-07-12T08:20:19;100538.00;;;24.60
22322;BMP180;11328;53.928;18.522;2022-07-12T08:23:06;100545.00;;;24.40
22322;BMP180;11328;53.928;18.522;2022-07-12T08:25:34;100545.00;;;24.80
22322;BMP180;11328;53.928;18.522;2022-07-12T08:28:01;100538.00;;;25.10
22322;BMP180;11328;53.928;18.522;2022-07-12T08:30:28;100538.00;;;24.70
22322;BMP180;11328;53.928;18.522;2022-07-12T08:32:55;100541.00;;;24.50
22322;BMP180;11328;53.928;18.522;2022-07-12T08:35:22;100534.00;;;24.90
22322;BMP180;11328;53.928;18.522;2022-07-12T08:37:50;100525.00;;;25.20
22322;BMP180;11328;53.928;18.522;2022-07-12T08:40:18;100553.00;;;25.00
22322;BMP180;11328;53.928;18.522;2022-07-12T08:42:45;100537.00;;;24.90
22322;BMP180;11328;53.928;18.522;2022-07-12T08:45:14;100529.00;;;25.10
22322;BMP180;11328;53.928;18.522;2022-07-12T08:47:41;100529.00;;;25.70
22322;BMP180;11328;53.928;18.522;2022-07-12T08:50:19;100530.00;;;25.50
22322;BMP180;11328;53.928;18.522;2022-07-12T08:52:50;100526.00;;;25.90
22322;BMP180;11328;53.928;18.522;2022-07-12T08:55:25;100524.00;;;26.10
22322;BMP180;11328;53.928;18.522;2022-07-12T08:57:55;100527.00;;;26.20
22322;BMP180;11328;53.928;18.522;2022-07-12T09:00:25;100521.00;;;26.10
22322;BMP180;11328;53.928;18.522;2022-07-12T09:02:59;100514.00;;;25.90
22322;BMP180;11328;53.928;18.522;2022-07-12T09:05:31;100514.00;;;26.00
22322;BMP180;11328;53.928;18.522;2022-07-12T09:08:04;100536.00;;;26.20
22322;BMP180;11328;53.928;18.522;2022-07-12T09:10:33;100534.00;;;25.30
22322;BMP180;11328;53.928;18.522;2022-07-12T09:13:01;100519.00;;;25.30
22322;BMP180;11328;53.928;18.522;2022-07-12T09:15:28;100510.00;;;25.20
22322;BMP180;11328;53.928;18.522;2022-07-12T09:18:04;100508.00;;;25.40
22322;BMP180;11328;53.928;18.522;2022-07-12T09:20:36;100515.00;;;25.40
22322;BMP180;11328;53.928;18.522;2022-07-12T09:23:08;100509.00;;;25.50
22322;BMP180;11328;53.928;18.522;2022-07-12T09:25:37;100526.00;;;25.80
22322;BMP180;11328;53.928;18.522;2022-07-12T09:28:08;100533.00;;;25.70
22322;BMP180;11328;53.928;18.522;2022-07-12T09:30:46;100504.00;;;25.20
22322;BMP180;11328;53.928;18.522;2022-07-12T09:33:18;100541.00;;;25.00
22322;BMP180;11328;53.928;18.522;2022-07-12T09:36:06;100517.00;;;25.20
22322;BMP180;11328;53.928;18.522;2022-07-12T09:38:38;100514.00;;;25.50
22322;BMP180;11328;53.928;18.522;2022-07-12T09:41:07;100510.00;;;25.70
22322;BMP180;11328;53.928;18.522;2022-07-12T09:43:34;100510.00;;;26.30
22322;BMP180;11328;53.928;18.522;2022-07-12T09:46:02;100509.00;;;26.00
22322;BMP180;11328;53.928;18.522;2022-07-12T09:48:29;100515.00;;;25.40
22322;BMP180;11328;53.928;18.522;2022-07-12T09:50:58;100507.00;;;24.60
22322;BMP180;11328;53.928;18.522;2022-07-12T09:56:12;100497.00;;;25.60
22322;BMP180;11328;53.928;18.522;2022-07-12T09:58:53;100512.00;;;26.30
22322;BMP180;11328;53.928;18.522;2022-07-12T10:01:21;100496.00;;;25.90
22322;BMP180;11328;53.928;18.522;2022-07-12T10:03:52;100493.00;;;25.50
22322;BMP180;11328;53.928;18.522;2022-07-12T10:06:28;100497.00;;;25.70
22322;BMP180;11328;53.928;18.522;2022-07-12T10:09:03;100480.00;;;25.50
22322;BMP180;11328;53.928;18.522;2022-07-12T10:11:32;100507.00;;;25.70
22322;BMP180;11328;53.928;18.522;2022-07-12T10:14:20;100494.00;;;25.50
22322;BMP180;11328;53.928;18.522;2022-07-12T10:16:51;100501.00;;;25.50
22322;BMP180;11328;53.928;18.522;2022-07-12T10:19:30;100499.00;;;25.40
22322;BMP180;11328;53.928;18.522;2022-07-12T10:22:00;100490.00;;;25.60
22322;BMP180;11328;53.928;18.522;2022-07-12T10:29:50;100492.00;;;26.20
22322;BMP180;11328;53.928;18.522;2022-07-12T10:32:35;100474.00;;;26.20
22322;BMP180;11328;53.928;18.522;2022-07-12T10:35:05;100490.00;;;26.20
22322;BMP180;11328;53.928;18.522;2022-07-12T10:37:34;100496.00;;;25.90
22322;BMP180;11328;53.928;18.522;2022-07-12T10:40:20;100488.00;;;25.80
22322;BMP180;11328;53.928;18.522;2022-07-12T10:45:40;100497.00;;;25.30
22322;BMP180;11328;53.928;18.522;2022-07-12T10:48:28;100486.00;;;25.70
22322;BMP180;11328;53.928;18.522;2022-07-12T10:50:56;100481.00;;;25.80
22322;BMP180;11328;53.928;18.522;2022-07-12T10:53:36;100482.00;;;25.70
22322;BMP180;11328;53.928;18.522;2022-07-12T10:56:21;100481.00;;;25.60
22322;BMP180;11328;53.928;18.522;2022-07-12T10:58:58;100474.00;;;25.70
22322;BMP180;11328;53.928;18.522;2022-07-12T11:01:31;100480.00;;;26.00
22322;BMP180;11328;53.928;18.522;2022-07-12T11:04:08;100496.00;;;26.10
22322;BMP180;11328;53.928;18.522;2022-07-12T11:06:41;100487.00;;;25.70
22322;BMP180;11328;53.928;18.522;2022-07-12T11:09:12;100488.00;;;25.50
22322;BMP180;11328;53.928;18.522;2022-07-12T11:11:48;100482.00;;;25.70
22322;BMP180;11328;53.928;18.522;2022-07-12T11:14:27;100478.00;;;25.50
22322;BMP180;11328;53.928;18.522;2022-07-12T11:16:56;100482.00;;;25.70
22322;BMP180;11328;53.928;18.522;2022-07-12T11:19:30;100481.00;;;25.50
22322;BMP180;11328;53.928;18.522;2022-07-12T11:21:58;100478.00;;;25.60
22322;BMP180;11328;53.928;18.522;2022-07-12T11:24:30;100481.00;;;25.80
22322;BMP180;11328;53.928;18.522;2022-07-12T11:26:58;100464.00;;;26.20
22322;BMP180;11328;53.928;18.522;2022-07-12T11:29:27;100471.00;;;26.00
22322;BMP180;11328;53.928;18.522;2022-07-12T11:32:05;100465.00;;;26.10
22322;BMP180;11328;53.928;18.522;2022-07-12T11:34:38;100463.00;;;25.90
22322;BMP180;11328;53.928;18.522;2022-07-12T11:37:05;100460.00;;;25.90
22322;BMP180;11328;53.928;18.522;2022-07-12T11:39:38;100473.00;;;25.80
22322;BMP180;11328;53.928;18.522;2022-07-12T11:42:08;100468.00;;;26.00
22322;BMP180;11328;53.928;18.522;2022-07-12T11:44:47;100460.00;;;26.50
22322;BMP180;11328;53.928;18.522;2022-07-12T11:47:21;100475.00;;;26.40
22322;BMP180;11328;53.928;18.522;2022-07-12T11:49:55;100472.00;;;26.10
22322;BMP180;11328;53.928;18.522;2022-07-12T11:52:24;100473.00;;;26.00
22322;BMP180;11328;53.928;18.522;2022-07-12T11:54:52;100473.00;;;26.30
22322;BMP180;11328;53.928;18.522;2022-07-12T11:57:21;100467.00;;;26.10
22322;BMP180;11328;53.928;18.522;2022-07-12T11:59:52;100465.00;;;26.20
22322;BMP180;11328;53.928;18.522;2022-07-12T12:02:19;100435.00;;;26.20
22322;BMP180;11328;53.928;18.522;2022-07-12T12:04:53;100464.00;;;26.30
22322;BMP180;11328;53.928;18.522;2022-07-12T12:07:23;100467.00;;;26.50
22322;BMP180;11328;53.928;18.522;2022-07-12T12:10:13;100474.00;;;26.70
22322;BMP180;11328;53.928;18.522;2022-07-12T12:15:16;100459.00;;;27.10
22322;BMP180;11328;53.928;18.522;2022-07-12T12:17:57;100470.00;;;26.60
22322;BMP180;11328;53.928;18.522;2022-07-12T12:22:59;100449.00;;;26.40
22322;BMP180;11328;53.928;18.522;2022-07-12T12:25:29;100465.00;;;26.60
22322;BMP180;11328;53.928;18.522;2022-07-12T12:27:58;100464.00;;;26.60
22322;BMP180;11328;53.928;18.522;2022-07-12T12:30:56;100460.00;;;26.60
22322;BMP180;11328;53.928;18.522;2022-07-12T12:36:21;100459.00;;;26.10
22322;BMP180;11328;53.928;18.522;2022-07-12T12:38:53;100467.00;;;25.90
22322;BMP180;11328;53.928;18.522;2022-07-12T12:41:21;100465.00;;;26.10
22322;BMP180;11328;53.928;18.522;2022-07-12T12:44:04;100461.00;;;25.80
22322;BMP180;11328;53.928;18.522;2022-07-12T12:46:52;100458.00;;;26.10
22322;BMP180;11328;53.928;18.522;2022-07-12T12:49:50;100468.00;;;26.50
22322;BMP180;11328;53.928;18.522;2022-07-12T12:52:29;100461.00;;;26.40
22322;BMP180;11328;53.928;18.522;2022-07-12T12:54:57;100478.00;;;26.70
22322;BMP180;11328;53.928;18.522;2022-07-12T12:57:25;100465.00;;;26.30
22322;BMP180;11328;53.928;18.522;2022-07-12T12:59:53;100458.00;;;25.90
22322;BMP180;11328;53.928;18.522;2022-07-12T13:02:20;100473.00;;;25.50
22322;BMP180;11328;53.928;18.522;2022-07-12T13:04:51;100455.00;;;25.40
22322;BMP180;11328;53.928;18.522;2022-07-12T13:07:18;100455.00;;;25.70
22322;BMP180;11328;53.928;18.522;2022-07-12T13:09:45;100454.00;;;25.90
22322;BMP180;11328;53.928;18.522;2022-07-12T13:12:12;100450.00;;;26.10
22322;BMP180;11328;53.928;18.522;2022-07-12T13:14:39;100439.00;;;26.30
22322;BMP180;11328;53.928;18.522;2022-07-12T13:17:06;100447.00;;;26.10
22322;BMP180;11328;53.928;18.522;2022-07-12T13:19:33;100442.00;;;26.10
22322;BMP180;11328;53.928;18.522;2022-07-12T13:22:00;100472.00;;;25.90
22322;BMP180;11328;53.928;18.522;2022-07-12T13:24:27;100459.00;;;25.80
22322;BMP180;11328;53.928;18.522;2022-07-12T13:26:54;100468.00;;;25.70
22322;BMP180;11328;53.928;18.522;2022-07-12T13:29:21;100457.00;;;25.70
22322;BMP180;11328;53.928;18.522;2022-07-12T13:31:48;100466.00;;;25.90
22322;BMP180;11328;53.928;18.522;2022-07-12T13:34:22;100453.00;;;25.80
22322;BMP180;11328;53.928;18.522;2022-07-12T13:36:49;100448.00;;;25.70
22322;BMP180;11328;53.928;18.522;2022-07-12T13:39:16;100451.00;;;25.60
22322;BMP180;11328;53.928;18.522;2022-07-12T13:42:02;100455.00;;;25.50
22322;BMP180;11328;53.928;18.522;2022-07-12T13:44:29;100454.00;;;25.50
22322;BMP180;11328;53.928;18.522;2022-07-12T13:46:56;100466.00;;;25.20
22322;BMP180;11328;53.928;18.522;2022-07-12T13:49:24;100462.00;;;25.30
22322;BMP180;11328;53.928;18.522;2022-07-12T13:51:51;100466.00;;;25.40
22322;BMP180;11328;53.928;18.522;2022-07-12T13:54:18;100467.00;;;25.40
22322;BMP180;11328;53.928;18.522;2022-07-12T13:56:46;100469.00;;;25.20
22322;BMP180;11328;53.928;18.522;2022-07-12T13:59:14;100475.00;;;25.30
22322;BMP180;11328;53.928;18.522;2022-07-12T14:01:41;100454.00;;;25.40
22322;BMP180;11328;53.928;18.522;2022-07-12T14:04:08;100458.00;;;25.70
22322;BMP180;11328;53.928;18.522;2022-07-12T14:06:36;100466.00;;;25.80
22322;BMP180;11328;53.928;18.522;2022-07-12T14:09:03;100455.00;;;25.60
22322;BMP180;11328;53.928;18.522;2022-07-12T14:11:30;100461.00;;;25.60
22322;BMP180;11328;53.928;18.522;2022-07-12T14:13:58;100462.00;;;25.50
22322;BMP180;11328;53.928;18.522;2022-07-12T14:16:25;100465.00;;;25.70